sensor_id;sensor_type;location;lat;lon;timestamp;temperature;humidity
34644;DHT22;26931;43.498;-1.506;2023-04-03T00:00:36;13.30;94.10
34644;DHT22;26931;43.498;-1.506;2023-04-03T00:03:02;13.40;94.20
34644;DHT22;26931;43.498;-1.506;2023-04-03T00:05:28;13.40;94.10
34644;DHT22;26931;43.498;-1.506;2023-04-03T00:07:54;13.40;93.90
34644;DHT22;26931;43.498;-1.506;2023-04-03T00:10:20;13.40;94.00
34644;DHT22;26931;43.498;-1.506;2023-04-03T00:12:45;13.40;93.90
34644;DHT22;26931;43.498;-1.506;2023-04-03T00:15:11;13.40;93.90
34644;DHT22;26931;43.498;-1.506;2023-04-03T00:17:37;13.40;93.90
34644;DHT22;26931;43.498;-1.506;2023-04-03T00:20:03;13.40;93.90
34644;DHT22;26931;43.498;-1.506;2023-04-03T00:22:29;13.40;93.90
34644;DHT22;26931;43.498;-1.506;2023-04-03T00:24:55;13.20;94.00
34644;DHT22;26931;43.498;-1.506;2023-04-03T00:27:21;13.30;94.20
34644;DHT22;26931;43.498;-1.506;2023-04-03T00:29:47;13.30;94.30
34644;DHT22;26931;43.498;-1.506;2023-04-03T00:32:12;13.20;94.40
34644;DHT22;26931;43.498;-1.506;2023-04-03T00:34:38;13.30;94.50
34644;DHT22;26931;43.498;-1.506;2023-04-03T00:37:04;13.40;94.60
34644;DHT22;26931;43.498;-1.506;2023-04-03T00:39:30;13.30;94.70
34644;DHT22;26931;43.498;-1.506;2023-04-03T00:41:56;13.30;94.70
34644;DHT22;26931;43.498;-1.506;2023-04-03T00:44:23;13.30;94.80
34644;DHT22;26931;43.498;-1.506;2023-04-03T00:47:08;13.30;94.80
34644;DHT22;26931;43.498;-1.506;2023-04-03T00:49:35;13.30;94.80
34644;DHT22;26931;43.498;-1.506;2023-04-03T00:52:01;13.30;94.90
34644;DHT22;26931;43.498;-1.506;2023-04-03T00:54:28;13.30;95.10
34644;DHT22;26931;43.498;-1.506;2023-04-03T00:56:54;13.50;95.10
34644;DHT22;26931;43.498;-1.506;2023-04-03T00:59:22;13.30;95.20
34644;DHT22;26931;43.498;-1.506;2023-04-03T01:01:50;13.50;95.30
34644;DHT22;26931;43.498;-1.506;2023-04-03T01:04:36;13.20;95.30
34644;DHT22;26931;43.498;-1.506;2023-04-03T01:07:08;13.30;95.40
34644;DHT22;26931;43.498;-1.506;2023-04-03T01:09:34;13.30;95.40
34644;DHT22;26931;43.498;-1.506;2023-04-03T01:14:56;13.20;95.40
34644;DHT22;26931;43.498;-1.506;2023-04-03T01:17:30;13.20;95.20
34644;DHT22;26931;43.498;-1.506;2023-04-03T01:25:08;13.30;94.90
34644;DHT22;26931;43.498;-1.506;2023-04-03T01:27:34;13.30;94.90
34644;DHT22;26931;43.498;-1.506;2023-04-03T01:30:00;13.30;94.90
34644;DHT22;26931;43.498;-1.506;2023-04-03T01:32:26;13.30;95.00
34644;DHT22;26931;43.498;-1.506;2023-04-03T01:34:52;13.30;95.10
34644;DHT22;26931;43.498;-1.506;2023-04-03T01:37:18;13.30;95.20
34644;DHT22;26931;43.498;-1.506;2023-04-03T01:39:44;13.30;95.30
34644;DHT22;26931;43.498;-1.506;2023-04-03T01:42:10;13.30;95.30
34644;DHT22;26931;43.498;-1.506;2023-04-03T01:44:36;13.30;95.30
34644;DHT22;26931;43.498;-1.506;2023-04-03T01:47:05;13.30;95.30
34644;DHT22;26931;43.498;-1.506;2023-04-03T01:49:31;13.30;95.30
34644;DHT22;26931;43.498;-1.506;2023-04-03T01:51:56;13.30;95.30
34644;DHT22;26931;43.498;-1.506;2023-04-03T01:54:22;13.30;95.30
34644;DHT22;26931;43.498;-1.506;2023-04-03T01:56:48;13.30;95.40
34644;DHT22;26931;43.498;-1.506;2023-04-03T01:59:14;13.30;95.50
34644;DHT22;26931;43.498;-1.506;2023-04-03T02:01:42;13.30;95.60
34644;DHT22;26931;43.498;-1.506;2023-04-03T02:04:11;13.30;95.60
34644;DHT22;26931;43.498;-1.506;2023-04-03T02:06:37;13.30;95.60
34644;DHT22;26931;43.498;-1.506;2023-04-03T02:09:03;13.30;95.70
34644;DHT22;26931;43.498;-1.506;2023-04-03T02:11:29;13.20;95.90
34644;DHT22;26931;43.498;-1.506;2023-04-03T02:13:55;13.20;95.90
34644;DHT22;26931;43.498;-1.506;2023-04-03T02:16:21;13.20;96.00
34644;DHT22;26931;43.498;-1.506;2023-04-03T02:18:47;13.20;96.00
34644;DHT22;26931;43.498;-1.506;2023-04-03T02:21:12;13.20;96.10
34644;DHT22;26931;43.498;-1.506;2023-04-03T02:23:38;13.10;96.20
34644;DHT22;26931;43.498;-1.506;2023-04-03T02:26:10;13.30;96.50
34644;DHT22;26931;43.498;-1.506;2023-04-03T02:28:36;13.20;96.50
34644;DHT22;26931;43.498;-1.506;2023-04-03T02:31:03;13.20;96.40
34644;DHT22;26931;43.498;-1.506;2023-04-03T02:33:29;13.20;96.40
34644;DHT22;26931;43.498;-1.506;2023-04-03T02:35:55;13.30;96.40
34644;DHT22;26931;43.498;-1.506;2023-04-03T02:38:22;13.30;96.40
34644;DHT22;26931;43.498;-1.506;2023-04-03T02:40:47;13.30;96.40
34644;DHT22;26931;43.498;-1.506;2023-04-03T02:43:13;13.20;96.40
34644;DHT22;26931;43.498;-1.506;2023-04-03T02:45:39;13.20;96.60
34644;DHT22;26931;43.498;-1.506;2023-04-03T02:48:05;13.20;96.70
34644;DHT22;26931;43.498;-1.506;2023-04-03T02:50:31;13.20;96.70
34644;DHT22;26931;43.498;-1.506;2023-04-03T02:52:57;13.20;96.70
34644;DHT22;26931;43.498;-1.506;2023-04-03T02:55:23;13.20;96.70
34644;DHT22;26931;43.498;-1.506;2023-04-03T02:57:49;13.20;96.70
34644;DHT22;26931;43.498;-1.506;2023-04-03T03:00:15;13.20;96.60
34644;DHT22;26931;43.498;-1.506;2023-04-03T03:02:41;13.20;96.60
34644;DHT22;26931;43.498;-1.506;2023-04-03T03:05:07;13.20;96.60
34644;DHT22;26931;43.498;-1.506;2023-04-03T03:07:33;13.10;96.70
34644;DHT22;26931;43.498;-1.506;2023-04-03T03:09:59;13.10;96.70
34644;DHT22;26931;43.498;-1.506;2023-04-03T03:12:25;13.00;96.70
34644;DHT22;26931;43.498;-1.506;2023-04-03T03:14:50;13.00;96.80
34644;DHT22;26931;43.498;-1.506;2023-04-03T03:17:17;12.90;96.90
34644;DHT22;26931;43.498;-1.506;2023-04-03T03:19:43;12.90;96.90
34644;DHT22;26931;43.498;-1.506;2023-04-03T03:22:11;12.90;97.00
34644;DHT22;26931;43.498;-1.506;2023-04-03T03:24:37;12.90;97.10
34644;DHT22;26931;43.498;-1.506;2023-04-03T03:27:03;12.80;97.20
34644;DHT22;26931;43.498;-1.506;2023-04-03T03:29:28;12.80;97.20
34644;DHT22;26931;43.498;-1.506;2023-04-03T03:31:54;12.70;97.20
34644;DHT22;26931;43.498;-1.506;2023-04-03T03:34:20;12.70;97.40
34644;DHT22;26931;43.498;-1.506;2023-04-03T03:36:46;12.80;97.30
34644;DHT22;26931;43.498;-1.506;2023-04-03T03:39:12;12.90;97.20
34644;DHT22;26931;43.498;-1.506;2023-04-03T03:41:37;12.70;97.30
34644;DHT22;26931;43.498;-1.506;2023-04-03T03:44:03;12.70;97.40
34644;DHT22;26931;43.498;-1.506;2023-04-03T03:46:29;12.70;97.30
34644;DHT22;26931;43.498;-1.506;2023-04-03T03:48:55;12.90;97.40
34644;DHT22;26931;43.498;-1.506;2023-04-03T03:51:21;12.60;97.40
34644;DHT22;26931;43.498;-1.506;2023-04-03T03:53:47;12.70;97.50
34644;DHT22;26931;43.498;-1.506;2023-04-03T03:56:13;12.70;97.40
34644;DHT22;26931;43.498;-1.506;2023-04-03T03:58:38;12.60;97.60
34644;DHT22;26931;43.498;-1.506;2023-04-03T04:01:05;12.70;97.50
34644;DHT22;26931;43.498;-1.506;2023-04-03T04:03:31;12.70;97.50
34644;DHT22;26931;43.498;-1.506;2023-04-03T04:05:57;12.70;97.40
34644;DHT22;26931;43.498;-1.506;2023-04-03T04:08:23;12.80;97.50
34644;DHT22;26931;43.498;-1.506;2023-04-03T04:10:49;12.80;97.50
34644;DHT22;26931;43.498;-1.506;2023-04-03T04:13:15;12.80;97.50
34644;DHT22;26931;43.498;-1.506;2023-04-03T04:15:41;12.90;97.30
34644;DHT22;26931;43.498;-1.506;2023-04-03T04:18:07;12.80;97.40
34644;DHT22;26931;43.498;-1.506;2023-04-03T04:20:33;12.80;97.40
34644;DHT22;26931;43.498;-1.506;2023-04-03T04:22:59;12.80;97.50
34644;DHT22;26931;43.498;-1.506;2023-04-03T04:25:25;12.80;97.40
34644;DHT22;26931;43.498;-1.506;2023-04-03T04:27:51;12.80;97.40
34644;DHT22;26931;43.498;-1.506;2023-04-03T04:30:17;12.90;97.30
34644;DHT22;26931;43.498;-1.506;2023-04-03T04:32:43;12.90;97.40
34644;DHT22;26931;43.498;-1.506;2023-04-03T04:35:08;12.90;97.40
34644;DHT22;26931;43.498;-1.506;2023-04-03T04:37:35;12.90;97.40
34644;DHT22;26931;43.498;-1.506;2023-04-03T04:40:00;12.90;97.30
34644;DHT22;26931;43.498;-1.506;2023-04-03T04:42:27;12.90;97.20
34644;DHT22;26931;43.498;-1.506;2023-04-03T04:44:53;12.80;97.20
34644;DHT22;26931;43.498;-1.506;2023-04-03T04:47:18;12.70;97.30
34644;DHT22;26931;43.498;-1.506;2023-04-03T04:49:44;12.80;97.30
34644;DHT22;26931;43.498;-1.506;2023-04-03T04:52:10;13.00;97.40
34644;DHT22;26931;43.498;-1.506;2023-04-03T04:54:36;12.90;97.30
34644;DHT22;26931;43.498;-1.506;2023-04-03T04:57:02;12.90;97.30
34644;DHT22;26931;43.498;-1.506;2023-04-03T04:59:28;12.80;97.30
34644;DHT22;26931;43.498;-1.506;2023-04-03T05:01:54;12.80;97.40
34644;DHT22;26931;43.498;-1.506;2023-04-03T05:04:20;12.80;97.30
34644;DHT22;26931;43.498;-1.506;2023-04-03T05:06:46;12.70;97.30
34644;DHT22;26931;43.498;-1.506;2023-04-03T05:09:11;12.90;97.30
34644;DHT22;26931;43.498;-1.506;2023-04-03T05:11:37;12.90;97.30
34644;DHT22;26931;43.498;-1.506;2023-04-03T05:14:03;12.90;97.30
34644;DHT22;26931;43.498;-1.506;2023-04-03T05:16:32;12.70;97.40
34644;DHT22;26931;43.498;-1.506;2023-04-03T05:18:57;12.90;97.50
34644;DHT22;26931;43.498;-1.506;2023-04-03T05:21:23;12.70;97.50
34644;DHT22;26931;43.498;-1.506;2023-04-03T05:23:54;12.70;97.50
34644;DHT22;26931;43.498;-1.506;2023-04-03T05:26:20;12.80;97.50
34644;DHT22;26931;43.498;-1.506;2023-04-03T05:28:46;12.70;97.50
34644;DHT22;26931;43.498;-1.506;2023-04-03T05:31:12;12.80;97.50
34644;DHT22;26931;43.498;-1.506;2023-04-03T05:33:38;12.70;97.50
34644;DHT22;26931;43.498;-1.506;2023-04-03T05:36:04;12.80;97.50
34644;DHT22;26931;43.498;-1.506;2023-04-03T05:38:32;12.90;97.40
34644;DHT22;26931;43.498;-1.506;2023-04-03T05:40:57;12.80;97.40
34644;DHT22;26931;43.498;-1.506;2023-04-03T05:43:23;12.80;97.50
34644;DHT22;26931;43.498;-1.506;2023-04-03T05:45:50;12.80;97.50
34644;DHT22;26931;43.498;-1.506;2023-04-03T05:48:16;12.80;97.50
34644;DHT22;26931;43.498;-1.506;2023-04-03T05:50:42;12.80;97.40
34644;DHT22;26931;43.498;-1.506;2023-04-03T05:53:19;12.80;97.40
34644;DHT22;26931;43.498;-1.506;2023-04-03T05:55:46;12.90;97.40
34644;DHT22;26931;43.498;-1.506;2023-04-03T05:58:12;12.80;97.30
34644;DHT22;26931;43.498;-1.506;2023-04-03T06:00:38;12.80;97.40
34644;DHT22;26931;43.498;-1.506;2023-04-03T06:03:04;12.90;97.40
34644;DHT22;26931;43.498;-1.506;2023-04-03T06:05:30;12.80;97.30
34644;DHT22;26931;43.498;-1.506;2023-04-03T06:07:56;13.00;97.40
34644;DHT22;26931;43.498;-1.506;2023-04-03T06:10:23;12.90;97.40
34644;DHT22;26931;43.498;-1.506;2023-04-03T06:12:49;13.00;97.40
34644;DHT22;26931;43.498;-1.506;2023-04-03T06:15:15;12.90;97.30
34644;DHT22;26931;43.498;-1.506;2023-04-03T06:17:42;13.00;97.30
34644;DHT22;26931;43.498;-1.506;2023-04-03T06:20:08;13.00;97.30
34644;DHT22;26931;43.498;-1.506;2023-04-03T06:22:35;13.00;97.30
34644;DHT22;26931;43.498;-1.506;2023-04-03T06:25:00;13.00;97.30
34644;DHT22;26931;43.498;-1.506;2023-04-03T06:27:26;13.10;97.30
34644;DHT22;26931;43.498;-1.506;2023-04-03T06:29:52;13.00;97.20
34644;DHT22;26931;43.498;-1.506;2023-04-03T06:32:18;13.00;97.20
34644;DHT22;26931;43.498;-1.506;2023-04-03T06:34:44;13.00;97.10
34644;DHT22;26931;43.498;-1.506;2023-04-03T06:37:14;12.90;97.20
34644;DHT22;26931;43.498;-1.506;2023-04-03T06:39:40;13.00;97.30
34644;DHT22;26931;43.498;-1.506;2023-04-03T06:42:07;13.00;97.30
34644;DHT22;26931;43.498;-1.506;2023-04-03T06:44:33;13.00;97.30
34644;DHT22;26931;43.498;-1.506;2023-04-03T06:46:59;13.00;97.30
34644;DHT22;26931;43.498;-1.506;2023-04-03T06:49:25;13.00;97.20
34644;DHT22;26931;43.498;-1.506;2023-04-03T06:51:51;13.10;97.20
34644;DHT22;26931;43.498;-1.506;2023-04-03T06:54:17;13.10;97.20
34644;DHT22;26931;43.498;-1.506;2023-04-03T06:56:43;13.10;97.20
34644;DHT22;26931;43.498;-1.506;2023-04-03T06:59:10;13.00;97.20
34644;DHT22;26931;43.498;-1.506;2023-04-03T07:01:38;13.20;97.30
34644;DHT22;26931;43.498;-1.506;2023-04-03T07:04:04;13.10;97.30
34644;DHT22;26931;43.498;-1.506;2023-04-03T07:06:29;13.10;97.30
34644;DHT22;26931;43.498;-1.506;2023-04-03T07:08:56;13.10;97.20
34644;DHT22;26931;43.498;-1.506;2023-04-03T07:11:22;13.30;97.20
34644;DHT22;26931;43.498;-1.506;2023-04-03T07:13:48;13.10;97.20
34644;DHT22;26931;43.498;-1.506;2023-04-03T07:16:14;13.10;97.40
34644;DHT22;26931;43.498;-1.506;2023-04-03T07:18:40;13.10;97.40
34644;DHT22;26931;43.498;-1.506;2023-04-03T07:21:06;13.10;97.40
34644;DHT22;26931;43.498;-1.506;2023-04-03T07:23:32;13.00;97.30
34644;DHT22;26931;43.498;-1.506;2023-04-03T07:25:58;13.00;97.50
34644;DHT22;26931;43.498;-1.506;2023-04-03T07:28:24;13.00;97.40
34644;DHT22;26931;43.498;-1.506;2023-04-03T07:30:59;13.00;97.40
34644;DHT22;26931;43.498;-1.506;2023-04-03T07:33:25;13.10;97.60
34644;DHT22;26931;43.498;-1.506;2023-04-03T07:35:51;12.90;97.50
34644;DHT22;26931;43.498;-1.506;2023-04-03T07:38:17;12.90;97.60
34644;DHT22;26931;43.498;-1.506;2023-04-03T07:40:47;12.90;97.60
34644;DHT22;26931;43.498;-1.506;2023-04-03T07:43:13;13.10;98.00
34644;DHT22;26931;43.498;-1.506;2023-04-03T07:45:40;13.00;97.60
34644;DHT22;26931;43.498;-1.506;2023-04-03T07:48:05;13.10;97.60
34644;DHT22;26931;43.498;-1.506;2023-04-03T07:50:31;13.10;97.70
34644;DHT22;26931;43.498;-1.506;2023-04-03T07:52:57;13.10;97.70
34644;DHT22;26931;43.498;-1.506;2023-04-03T07:55:23;13.10;97.80
34644;DHT22;26931;43.498;-1.506;2023-04-03T07:57:49;13.20;97.80
34644;DHT22;26931;43.498;-1.506;2023-04-03T08:00:16;13.20;97.80
34644;DHT22;26931;43.498;-1.506;2023-04-03T08:02:43;13.30;97.90
34644;DHT22;26931;43.498;-1.506;2023-04-03T08:05:10;13.30;97.80
34644;DHT22;26931;43.498;-1.506;2023-04-03T08:07:39;13.30;97.80
34644;DHT22;26931;43.498;-1.506;2023-04-03T08:10:05;13.30;97.80
34644;DHT22;26931;43.498;-1.506;2023-04-03T08:12:31;13.50;97.80
34644;DHT22;26931;43.498;-1.506;2023-04-03T08:14:59;13.40;97.80
34644;DHT22;26931;43.498;-1.506;2023-04-03T08:17:25;13.30;97.80
34644;DHT22;26931;43.498;-1.506;2023-04-03T08:19:51;13.20;97.80
34644;DHT22;26931;43.498;-1.506;2023-04-03T08:22:17;13.50;98.00
34644;DHT22;26931;43.498;-1.506;2023-04-03T08:24:43;13.30;97.90
34644;DHT22;26931;43.498;-1.506;2023-04-03T08:27:09;13.30;97.80
34644;DHT22;26931;43.498;-1.506;2023-04-03T08:29:35;13.20;97.80
34644;DHT22;26931;43.498;-1.506;2023-04-03T08:32:03;13.40;97.90
34644;DHT22;26931;43.498;-1.506;2023-04-03T08:34:29;13.50;97.90
34644;DHT22;26931;43.498;-1.506;2023-04-03T08:36:55;13.60;97.90
34644;DHT22;26931;43.498;-1.506;2023-04-03T08:39:21;13.60;97.80
34644;DHT22;26931;43.498;-1.506;2023-04-03T08:41:47;13.70;97.80
34644;DHT22;26931;43.498;-1.506;2023-04-03T08:49:28;13.50;97.50
34644;DHT22;26931;43.498;-1.506;2023-04-03T08:51:54;13.70;97.40
34644;DHT22;26931;43.498;-1.506;2023-04-03T08:54:28;13.70;97.30
34644;DHT22;26931;43.498;-1.506;2023-04-03T08:56:55;13.80;97.30
34644;DHT22;26931;43.498;-1.506;2023-04-03T08:59:24;13.90;97.20
34644;DHT22;26931;43.498;-1.506;2023-04-03T09:01:52;14.10;97.20
34644;DHT22;26931;43.498;-1.506;2023-04-03T09:04:18;14.00;97.00
34644;DHT22;26931;43.498;-1.506;2023-04-03T09:06:45;14.10;96.80
34644;DHT22;26931;43.498;-1.506;2023-04-03T09:09:22;14.20;96.70
34644;DHT22;26931;43.498;-1.506;2023-04-03T09:11:58;14.30;96.50
34644;DHT22;26931;43.498;-1.506;2023-04-03T09:14:30;14.30;96.30
34644;DHT22;26931;43.498;-1.506;2023-04-03T09:17:02;14.40;96.10
34644;DHT22;26931;43.498;-1.506;2023-04-03T09:22:07;14.50;95.80
34644;DHT22;26931;43.498;-1.506;2023-04-03T09:24:36;14.50;95.60
34644;DHT22;26931;43.498;-1.506;2023-04-03T09:27:04;14.60;95.40
34644;DHT22;26931;43.498;-1.506;2023-04-03T09:29:31;14.80;95.30
34644;DHT22;26931;43.498;-1.506;2023-04-03T09:32:00;14.70;95.10
34644;DHT22;26931;43.498;-1.506;2023-04-03T09:34:35;14.80;95.00
34644;DHT22;26931;43.498;-1.506;2023-04-03T09:37:02;14.80;94.70
34644;DHT22;26931;43.498;-1.506;2023-04-03T09:39:32;14.90;94.60
34644;DHT22;26931;43.498;-1.506;2023-04-03T09:42:05;15.10;94.40
34644;DHT22;26931;43.498;-1.506;2023-04-03T09:44:37;15.00;94.10
34644;DHT22;26931;43.498;-1.506;2023-04-03T09:49:48;15.10;93.70
34644;DHT22;26931;43.498;-1.506;2023-04-03T09:52:22;15.10;93.40
34644;DHT22;26931;43.498;-1.506;2023-04-03T09:54:49;15.20;93.10
34644;DHT22;26931;43.498;-1.506;2023-04-03T09:57:15;15.20;92.80
34644;DHT22;26931;43.498;-1.506;2023-04-03T09:59:56;15.20;92.60
34644;DHT22;26931;43.498;-1.506;2023-04-03T10:02:28;15.30;92.40
34644;DHT22;26931;43.498;-1.506;2023-04-03T10:04:56;15.30;92.30
34644;DHT22;26931;43.498;-1.506;2023-04-03T10:07:40;15.40;91.90
34644;DHT22;26931;43.498;-1.506;2023-04-03T10:12:39;15.50;91.60
34644;DHT22;26931;43.498;-1.506;2023-04-03T10:15:11;15.60;91.40
34644;DHT22;26931;43.498;-1.506;2023-04-03T10:17:43;15.70;91.30
34644;DHT22;26931;43.498;-1.506;2023-04-03T10:25:46;15.90;90.80
34644;DHT22;26931;43.498;-1.506;2023-04-03T10:30:47;16.00;90.70
34644;DHT22;26931;43.498;-1.506;2023-04-03T10:38:16;16.20;90.30
34644;DHT22;26931;43.498;-1.506;2023-04-03T10:40:56;16.20;90.20
34644;DHT22;26931;43.498;-1.506;2023-04-03T10:43:27;16.20;90.00
34644;DHT22;26931;43.498;-1.506;2023-04-03T10:46:03;16.10;89.90
34644;DHT22;26931;43.498;-1.506;2023-04-03T10:48:40;16.10;89.90
34644;DHT22;26931;43.498;-1.506;2023-04-03T10:53:44;16.10;89.70
34644;DHT22;26931;43.498;-1.506;2023-04-03T10:56:15;15.90;89.70
34644;DHT22;26931;43.498;-1.506;2023-04-03T10:58:48;16.00;89.60
34644;DHT22;26931;43.498;-1.506;2023-04-03T11:01:19;15.90;89.40
34644;DHT22;26931;43.498;-1.506;2023-04-03T11:03:48;16.00;89.40
34644;DHT22;26931;43.498;-1.506;2023-04-03T11:06:18;16.10;89.30
34644;DHT22;26931;43.498;-1.506;2023-04-03T11:08:57;16.10;89.00
34644;DHT22;26931;43.498;-1.506;2023-04-03T11:11:27;16.00;88.90
34644;DHT22;26931;43.498;-1.506;2023-04-03T11:13:57;16.00;89.60
34644;DHT22;26931;43.498;-1.506;2023-04-03T11:16:26;16.00;88.80
34644;DHT22;26931;43.498;-1.506;2023-04-03T11:18:54;15.90;88.60
34644;DHT22;26931;43.498;-1.506;2023-04-03T11:21:24;15.70;88.50
34644;DHT22;26931;43.498;-1.506;2023-04-03T11:23:53;15.80;88.50
34644;DHT22;26931;43.498;-1.506;2023-04-03T11:26:26;15.80;88.40
34644;DHT22;26931;43.498;-1.506;2023-04-03T11:28:56;15.70;88.30
34644;DHT22;26931;43.498;-1.506;2023-04-03T11:31:36;15.80;88.30
34644;DHT22;26931;43.498;-1.506;2023-04-03T11:36:40;15.70;88.40
34644;DHT22;26931;43.498;-1.506;2023-04-03T11:39:20;15.70;88.30
34644;DHT22;26931;43.498;-1.506;2023-04-03T11:41:47;15.70;88.20
34644;DHT22;26931;43.498;-1.506;2023-04-03T11:47:09;15.50;87.80
34644;DHT22;26931;43.498;-1.506;2023-04-03T11:49:53;15.60;87.70
34644;DHT22;26931;43.498;-1.506;2023-04-03T12:31:40;15.60;88.40
34644;DHT22;26931;43.498;-1.506;2023-04-03T12:34:17;15.60;88.30
34644;DHT22;26931;43.498;-1.506;2023-04-03T12:36:50;15.60;88.20
34644;DHT22;26931;43.498;-1.506;2023-04-03T12:41:58;15.70;88.30
34644;DHT22;26931;43.498;-1.506;2023-04-03T12:44:35;15.70;88.20
34644;DHT22;26931;43.498;-1.506;2023-04-03T12:47:08;15.70;88.20
34644;DHT22;26931;43.498;-1.506;2023-04-03T12:49:42;15.90;88.30
34644;DHT22;26931;43.498;-1.506;2023-04-03T12:52:17;15.80;88.20
34644;DHT22;26931;43.498;-1.506;2023-04-03T12:54:44;15.70;88.20
34644;DHT22;26931;43.498;-1.506;2023-04-03T12:59:40;15.60;88.30
34644;DHT22;26931;43.498;-1.506;2023-04-03T13:04:52;15.70;88.70
34644;DHT22;26931;43.498;-1.506;2023-04-03T13:07:28;15.90;88.90
34644;DHT22;26931;43.498;-1.506;2023-04-03T13:09:57;15.70;88.70
34644;DHT22;26931;43.498;-1.506;2023-04-03T13:12:23;15.80;88.60
34644;DHT22;26931;43.498;-1.506;2023-04-03T13:14:52;15.70;88.50
34644;DHT22;26931;43.498;-1.506;2023-04-03T13:17:19;15.70;88.50
34644;DHT22;26931;43.498;-1.506;2023-04-03T13:19:45;15.70;88.50
34644;DHT22;26931;43.498;-1.506;2023-04-03T13:24:42;15.60;88.40
34644;DHT22;26931;43.498;-1.506;2023-04-03T13:27:10;15.60;88.80
34644;DHT22;26931;43.498;-1.506;2023-04-03T13:29:37;15.50;88.60
34644;DHT22;26931;43.498;-1.506;2023-04-03T13:32:05;15.50;88.60
34644;DHT22;26931;43.498;-1.506;2023-04-03T13:34:38;15.60;88.80
34644;DHT22;26931;43.498;-1.506;2023-04-03T13:37:06;15.50;88.70
34644;DHT22;26931;43.498;-1.506;2023-04-03T13:39:35;15.50;88.70
34644;DHT22;26931;43.498;-1.506;2023-04-03T13:42:16;15.50;88.80
34644;DHT22;26931;43.498;-1.506;2023-04-03T13:44:42;15.50;89.10
34644;DHT22;26931;43.498;-1.506;2023-04-03T13:47:16;15.80;89.40
34644;DHT22;26931;43.498;-1.506;2023-04-03T13:49:44;15.70;89.60
34644;DHT22;26931;43.498;-1.506;2023-04-03T13:52:24;15.70;89.80
34644;DHT22;26931;43.498;-1.506;2023-04-03T13:54:58;15.70;89.80
34644;DHT22;26931;43.498;-1.506;2023-04-03T13:57:25;15.70;89.90
34644;DHT22;26931;43.498;-1.506;2023-04-03T13:59:51;15.70;89.90
34644;DHT22;26931;43.498;-1.506;2023-04-03T14:04:48;15.60;89.90
34644;DHT22;26931;43.498;-1.506;2023-04-03T14:07:15;15.60;89.80
34644;DHT22;26931;43.498;-1.506;2023-04-03T14:09:43;15.60;89.90
34644;DHT22;26931;43.498;-1.506;2023-04-03T14:12:15;15.50;89.80
34644;DHT22;26931;43.498;-1.506;2023-04-03T14:14:42;15.50;89.80
34644;DHT22;26931;43.498;-1.506;2023-04-03T14:17:17;15.50;90.00
34644;DHT22;26931;43.498;-1.506;2023-04-03T14:19:43;15.50;90.00
34644;DHT22;26931;43.498;-1.506;2023-04-03T14:22:14;15.60;89.90
34644;DHT22;26931;43.498;-1.506;2023-04-03T14:24:40;15.60;89.80
34644;DHT22;26931;43.498;-1.506;2023-04-03T14:27:28;15.60;89.60
34644;DHT22;26931;43.498;-1.506;2023-04-03T14:29:52;15.60;89.60
34644;DHT22;26931;43.498;-1.506;2023-04-03T14:32:19;15.50;89.50
34644;DHT22;26931;43.498;-1.506;2023-04-03T14:34:45;15.60;89.60
34644;DHT22;26931;43.498;-1.506;2023-04-03T14:37:13;15.60;89.50
34644;DHT22;26931;43.498;-1.506;2023-04-03T14:39:39;15.50;89.20
34644;DHT22;26931;43.498;-1.506;2023-04-03T14:42:06;15.50;89.00
34644;DHT22;26931;43.498;-1.506;2023-04-03T14:44:32;15.50;88.70
34644;DHT22;26931;43.498;-1.506;2023-04-03T14:46:57;15.50;88.50
34644;DHT22;26931;43.498;-1.506;2023-04-03T14:49:24;15.60;88.40
34644;DHT22;26931;43.498;-1.506;2023-04-03T14:51:53;15.60;88.40
34644;DHT22;26931;43.498;-1.506;2023-04-03T14:54:19;15.60;88.20
34644;DHT22;26931;43.498;-1.506;2023-04-03T14:56:50;15.70;88.10
34644;DHT22;26931;43.498;-1.506;2023-04-03T14:59:16;15.80;87.80
34644;DHT22;26931;43.498;-1.506;2023-04-03T15:01:45;15.60;87.30
34644;DHT22;26931;43.498;-1.506;2023-04-03T15:04:14;15.60;87.10
34644;DHT22;26931;43.498;-1.506;2023-04-03T15:06:41;15.60;87.10
34644;DHT22;26931;43.498;-1.506;2023-04-03T15:09:14;15.50;87.20
34644;DHT22;26931;43.498;-1.506;2023-04-03T15:11:41;15.40;87.40
34644;DHT22;26931;43.498;-1.506;2023-04-03T15:14:08;15.50;87.40
34644;DHT22;26931;43.498;-1.506;2023-04-03T15:16:37;15.50;87.40
34644;DHT22;26931;43.498;-1.506;2023-04-03T15:19:02;15.40;87.10
34644;DHT22;26931;43.498;-1.506;2023-04-03T15:21:28;15.50;86.90
34644;DHT22;26931;43.498;-1.506;2023-04-03T15:23:54;15.70;86.80
34644;DHT22;26931;43.498;-1.506;2023-04-03T15:26:20;15.50;86.30
34644;DHT22;26931;43.498;-1.506;2023-04-03T15:28:46;15.70;86.10
34644;DHT22;26931;43.498;-1.506;2023-04-03T15:31:12;15.60;85.60
34644;DHT22;26931;43.498;-1.506;2023-04-03T15:33:38;15.60;85.00
34644;DHT22;26931;43.498;-1.506;2023-04-03T15:36:04;15.70;84.50
34644;DHT22;26931;43.498;-1.506;2023-04-03T15:38:30;15.70;84.30
34644;DHT22;26931;43.498;-1.506;2023-04-03T15:40:56;15.70;84.20
34644;DHT22;26931;43.498;-1.506;2023-04-03T15:43:22;15.80;84.00
34644;DHT22;26931;43.498;-1.506;2023-04-03T15:45:48;15.60;83.70
34644;DHT22;26931;43.498;-1.506;2023-04-03T15:48:14;15.60;83.60
34644;DHT22;26931;43.498;-1.506;2023-04-03T15:50:41;15.60;83.30
34644;DHT22;26931;43.498;-1.506;2023-04-03T15:53:07;15.70;83.10
34644;DHT22;26931;43.498;-1.506;2023-04-03T15:55:34;15.70;83.10
34644;DHT22;26931;43.498;-1.506;2023-04-03T15:58:00;15.70;83.00
34644;DHT22;26931;43.498;-1.506;2023-04-03T16:00:29;15.80;83.10
34644;DHT22;26931;43.498;-1.506;2023-04-03T16:02:58;15.70;82.70
34644;DHT22;26931;43.498;-1.506;2023-04-03T16:05:24;15.80;82.70
34644;DHT22;26931;43.498;-1.506;2023-04-03T16:07:50;15.80;82.60
34644;DHT22;26931;43.498;-1.506;2023-04-03T16:10:17;15.90;82.50
34644;DHT22;26931;43.498;-1.506;2023-04-03T16:12:43;15.70;82.30
34644;DHT22;26931;43.498;-1.506;2023-04-03T16:15:09;15.70;82.10
34644;DHT22;26931;43.498;-1.506;2023-04-03T16:17:36;15.60;82.00
34644;DHT22;26931;43.498;-1.506;2023-04-03T16:20:02;15.80;82.10
34644;DHT22;26931;43.498;-1.506;2023-04-03T16:22:28;15.70;82.10
34644;DHT22;26931;43.498;-1.506;2023-04-03T16:24:55;15.60;82.00
34644;DHT22;26931;43.498;-1.506;2023-04-03T16:27:21;15.70;81.90
34644;DHT22;26931;43.498;-1.506;2023-04-03T16:29:46;15.60;81.70
34644;DHT22;26931;43.498;-1.506;2023-04-03T16:32:12;15.60;81.70
34644;DHT22;26931;43.498;-1.506;2023-04-03T16:34:38;15.60;81.90
34644;DHT22;26931;43.498;-1.506;2023-04-03T16:37:05;15.40;81.90
34644;DHT22;26931;43.498;-1.506;2023-04-03T16:39:34;15.60;82.00
34644;DHT22;26931;43.498;-1.506;2023-04-03T16:42:00;15.60;81.70
34644;DHT22;26931;43.498;-1.506;2023-04-03T16:44:25;15.60;81.70
34644;DHT22;26931;43.498;-1.506;2023-04-03T16:46:51;15.60;81.60
34644;DHT22;26931;43.498;-1.506;2023-04-03T16:49:17;15.60;81.60
34644;DHT22;26931;43.498;-1.506;2023-04-03T16:51:43;15.60;81.60